createdAt,value
2018-09-09T00:00:33.956Z,46283.17
2018-09-09T00:02:39.018Z,46285.10
2018-09-09T00:04:43.949Z,46293.81
2018-09-09T00:06:48.808Z,46277.36
2018-09-09T00:08:53.524Z,46290.91
2018-09-09T00:10:58.317Z,46297.68
2018-09-09T00:13:03.195Z,46285.10
2018-09-09T00:15:08.030Z,46277.36
2018-09-09T00:17:12.760Z,46290.91
2018-09-09T00:19:17.452Z,46289.94
2018-09-09T00:21:22.227Z,46300.59
2018-09-09T00:23:27.035Z,46273.49
2018-09-09T00:25:31.888Z,46293.81
2018-09-09T00:27:36.660Z,46284.14
2018-09-09T00:29:41.315Z,46277.36
2018-09-09T00:31:46.060Z,46279.30
2018-09-09T00:33:50.806Z,46286.07
2018-09-09T00:35:55.542Z,46285.10
2018-09-09T00:38:00.205Z,46294.78
2018-09-09T00:40:05.026Z,46275.43
2018-09-09T00:42:09.790Z,46265.75
2018-09-09T00:44:14.557Z,46287.04
2018-09-09T00:46:19.454Z,46279.30
2018-09-09T00:48:24.237Z,46285.10
2018-09-09T00:50:34.195Z,46259.94
2018-09-09T00:52:43.935Z,46263.81
2018-09-09T00:54:48.684Z,46290.91
2018-09-09T00:56:53.516Z,46267.68
2018-09-09T00:58:58.413Z,46267.68
2018-09-09T01:01:08.262Z,46271.55
2018-09-09T01:03:13.038Z,46253.17
2018-09-09T01:05:17.942Z,46281.23
2018-09-09T01:07:22.708Z,46256.07
2018-09-09T01:09:32.293Z,46282.20
2018-09-09T01:11:37.144Z,46279.30
2018-09-09T01:13:41.827Z,46261.87
2018-09-09T01:15:46.677Z,46278.33
2018-09-09T01:17:51.530Z,46276.39
2018-09-09T01:19:56.252Z,46275.43
2018-09-09T01:22:01.000Z,46289.94
2018-09-09T01:24:05.697Z,46265.75
2018-09-09T01:26:10.538Z,46256.07
2018-09-09T01:28:15.395Z,46284.14
2018-09-09T01:30:20.481Z,46280.27
2018-09-09T01:32:25.237Z,46273.49
2018-09-09T01:34:29.929Z,46253.17
2018-09-09T01:36:34.640Z,46279.30
2018-09-09T01:38:39.380Z,46278.33
2018-09-09T01:40:44.206Z,46267.68
2018-09-09T01:42:49.052Z,46263.81
2018-09-09T01:44:53.758Z,46242.52
2018-09-09T01:46:58.500Z,46265.75
2018-09-09T01:49:03.294Z,46260.91
2018-09-09T01:51:08.128Z,46262.84
2018-09-09T01:53:12.904Z,46245.43
2018-09-09T01:55:17.597Z,46275.43
2018-09-09T01:57:22.762Z,46269.62
2018-09-09T01:59:27.631Z,46266.71
2018-09-09T02:01:32.384Z,46288.01
2018-09-09T02:03:37.122Z,46263.81
2018-09-09T02:05:41.946Z,46266.71
2018-09-09T02:07:46.782Z,46258.01
2018-09-09T02:09:51.495Z,46270.59
2018-09-09T02:11:56.279Z,46256.07
2018-09-09T02:14:01.040Z,46249.30
2018-09-09T02:16:05.852Z,46258.97
2018-09-09T02:18:10.585Z,46268.65
2018-09-09T02:20:15.385Z,46259.94
2018-09-09T02:22:20.135Z,46263.81
2018-09-09T02:24:24.859Z,46266.71
2018-09-09T02:26:29.677Z,46251.23
2018-09-09T02:28:34.392Z,46254.14
2018-09-09T02:30:39.127Z,46260.91
2018-09-09T02:32:43.813Z,46264.78
2018-09-09T02:34:48.559Z,46261.87
2018-09-09T02:36:53.408Z,46268.65
2018-09-09T02:38:58.165Z,46230.91
2018-09-09T02:41:02.940Z,46272.52
2018-09-09T02:43:07.783Z,46253.17
2018-09-09T02:45:12.543Z,46260.91
2018-09-09T02:47:17.327Z,46256.07
2018-09-09T02:49:22.039Z,46288.01
2018-09-09T02:51:26.742Z,46258.97
2018-09-09T02:53:31.428Z,46258.97
2018-09-09T02:55:40.316Z,46261.87
2018-09-09T02:57:45.036Z,46270.59
2018-09-09T02:59:49.754Z,46256.07
2018-09-09T03:01:54.504Z,46235.75
2018-09-09T03:03:59.235Z,46249.30
2018-09-09T03:06:04.601Z,46253.17
2018-09-09T03:08:09.543Z,46268.65
2018-09-09T03:10:14.438Z,46265.75
2018-09-09T03:12:19.245Z,46266.71
2018-09-09T03:14:24.103Z,46237.68
2018-09-09T03:16:28.905Z,46261.87
2018-09-09T03:18:33.706Z,46232.84
2018-09-09T03:20:38.538Z,46242.52
2018-09-09T03:22:43.448Z,46264.78
2018-09-09T03:24:48.256Z,46262.84
2018-09-09T03:26:53.209Z,46254.14
2018-09-09T03:28:58.000Z,46271.55
2018-09-09T03:31:02.816Z,46246.39
2018-09-09T03:33:08.374Z,46248.33
2018-09-09T03:35:13.231Z,46244.46
2018-09-09T03:37:18.117Z,46257.04
2018-09-09T03:39:22.958Z,46249.30
2018-09-09T03:41:30.328Z,46274.46
2018-09-09T03:43:35.075Z,46262.84
2018-09-09T03:45:40.055Z,46256.07
2018-09-09T03:47:44.838Z,46262.84
2018-09-09T03:49:49.666Z,46255.10
2018-09-09T03:51:54.641Z,46255.10
2018-09-09T03:53:59.492Z,46254.14
2018-09-09T03:56:04.436Z,46226.07
2018-09-09T03:58:09.164Z,46238.65
2018-09-09T04:00:13.913Z,46256.07
2018-09-09T04:02:18.682Z,46251.23
2018-09-09T04:04:23.538Z,46239.62
2018-09-09T04:06:28.217Z,46259.94
2018-09-09T04:08:32.974Z,46258.97
2018-09-09T04:10:37.807Z,46252.20
2018-09-09T04:12:42.559Z,46250.26
2018-09-09T04:14:47.276Z,46262.84
2018-09-09T04:16:51.996Z,46258.01
2018-09-09T04:18:56.781Z,46261.87
2018-09-09T04:21:01.601Z,46243.49
2018-09-09T04:23:06.361Z,46258.97
2018-09-09T04:25:11.171Z,46244.46
2018-09-09T04:27:15.976Z,46249.30
2018-09-09T04:29:20.659Z,46253.17
2018-09-09T04:31:25.354Z,46260.91
2018-09-09T04:33:30.073Z,46258.01
2018-09-09T04:35:34.856Z,46228.97
2018-09-09T04:37:39.752Z,46232.84
2018-09-09T04:39:44.429Z,46253.17
2018-09-09T04:41:49.153Z,46242.52
2018-09-09T04:43:53.863Z,46258.01
2018-09-09T04:45:58.543Z,46257.04
2018-09-09T04:48:03.211Z,46249.30
2018-09-09T04:50:08.011Z,46246.39
2018-09-09T04:52:12.710Z,46238.65
2018-09-09T04:54:17.473Z,46258.97
2018-09-09T04:56:22.180Z,46234.78
2018-09-09T04:58:26.886Z,46235.75
2018-09-09T05:00:31.705Z,46248.33
2018-09-09T05:02:36.507Z,46244.46
2018-09-09T05:04:41.199Z,46236.71
2018-09-09T05:06:45.954Z,46246.39
2018-09-09T05:08:50.672Z,46258.97
2018-09-09T05:10:55.408Z,46236.71
2018-09-09T05:13:00.124Z,46241.55
2018-09-09T05:15:04.877Z,46248.33
2018-09-09T05:17:09.610Z,46247.36
2018-09-09T05:19:14.340Z,46252.20
2018-09-09T05:21:19.157Z,46258.01
2018-09-09T05:23:24.031Z,46246.39
2018-09-09T05:25:28.942Z,46232.84
2018-09-09T05:27:33.686Z,46267.68
2018-09-09T05:29:38.409Z,46248.33
2018-09-09T05:31:43.160Z,46234.78
2018-09-09T05:33:47.984Z,46256.07
2018-09-09T05:35:52.700Z,46232.84
2018-09-09T05:37:57.393Z,46245.43
2018-09-09T05:40:02.141Z,46258.01
2018-09-09T05:42:06.940Z,46258.01
2018-09-09T05:44:11.881Z,46256.07
2018-09-09T05:46:16.589Z,46254.14
2018-09-09T05:48:21.363Z,46243.49
2018-09-09T05:50:26.279Z,46245.43
2018-09-09T05:52:30.952Z,46238.65
2018-09-09T05:54:35.687Z,46250.26
2018-09-09T05:56:40.574Z,46241.55
2018-09-09T05:58:45.385Z,46263.81
2018-09-09T06:00:50.643Z,46231.87
2018-09-09T06:02:55.435Z,46267.68
2018-09-09T06:05:00.321Z,46244.46
2018-09-09T06:07:05.096Z,46263.81
2018-09-09T06:09:11.641Z,46254.14
2018-09-09T06:11:16.390Z,46258.97
2018-09-09T06:13:21.480Z,46272.52
2018-09-09T06:15:26.359Z,46256.07
2018-09-09T06:17:31.124Z,46276.39
2018-09-09T06:19:36.104Z,46258.97
2018-09-09T06:21:40.959Z,46253.17
2018-09-09T06:23:45.829Z,46267.68
2018-09-09T06:25:50.732Z,46296.72
2018-09-09T06:27:55.676Z,46259.94
2018-09-09T06:30:00.528Z,46253.17
2018-09-09T06:32:06.061Z,46274.46
2018-09-09T06:34:10.850Z,46254.14
2018-09-09T06:36:15.617Z,46261.87
2018-09-09T06:38:20.635Z,46281.23
2018-09-09T06:40:25.630Z,46283.17
2018-09-09T06:42:31.144Z,46273.49
2018-09-09T06:44:36.255Z,46294.78
2018-09-09T06:46:41.188Z,46267.68
2018-09-09T06:48:46.062Z,46266.71
2018-09-09T06:50:51.795Z,46280.27
2018-09-09T06:52:57.004Z,46275.43
2018-09-09T06:55:02.106Z,46267.68
2018-09-09T06:57:07.175Z,46289.94
2018-09-09T06:59:12.049Z,46286.07
2018-09-09T07:01:17.150Z,46300.59
2018-09-09T07:03:22.019Z,46277.36
2018-09-09T07:05:27.079Z,46284.14
2018-09-09T07:07:32.200Z,46287.04
2018-09-09T07:09:38.722Z,46283.17
2018-09-09T07:11:44.018Z,46283.17
2018-09-09T07:13:48.722Z,46291.88
2018-09-09T07:15:53.622Z,46300.59
2018-09-09T07:17:59.796Z,46300.59
2018-09-09T07:20:04.978Z,46288.97
2018-09-09T07:22:10.067Z,46307.36
2018-09-09T07:24:15.063Z,46291.88
2018-09-09T07:26:19.922Z,46307.36
2018-09-09T07:28:26.535Z,46278.33
2018-09-09T07:30:31.763Z,46328.65
2018-09-09T07:32:37.254Z,46317.04
2018-09-09T07:34:44.198Z,46313.17
2018-09-09T07:36:54.953Z,46318.01
2018-09-09T07:39:00.038Z,46308.33
2018-09-09T07:41:04.766Z,46318.97
2018-09-09T07:43:09.620Z,46311.23
2018-09-09T07:45:14.634Z,46318.01
2018-09-09T07:47:19.503Z,46337.36
2018-09-09T07:49:24.533Z,46324.78
2018-09-09T07:51:29.407Z,46313.17
2018-09-09T07:53:40.782Z,46314.14
2018-09-09T07:55:45.534Z,46315.11
2018-09-09T07:57:51.314Z,46330.59
2018-09-09T07:59:56.119Z,46335.43
2018-09-09T08:02:00.914Z,46325.75
2018-09-09T08:04:06.614Z,46335.43
2018-09-09T08:06:11.589Z,46315.11
2018-09-09T08:08:16.670Z,46351.88
2018-09-09T08:10:21.594Z,46322.85
2018-09-09T08:12:26.431Z,46329.62
2018-09-09T08:14:31.320Z,46341.23
2018-09-09T08:16:36.294Z,46329.62
2018-09-09T08:18:41.120Z,46347.04
2018-09-09T08:20:48.262Z,46332.52
2018-09-09T08:22:53.025Z,46335.43
2018-09-09T08:24:58.098Z,46334.46
2018-09-09T08:27:02.884Z,46362.52
2018-09-09T08:29:07.992Z,46341.23
2018-09-09T08:31:12.810Z,46353.82
2018-09-09T08:33:18.076Z,46310.27
2018-09-09T08:35:23.024Z,46357.69
2018-09-09T08:37:28.269Z,46335.43
2018-09-09T08:39:33.599Z,46343.17
2018-09-09T08:41:38.559Z,46357.69
2018-09-09T08:43:44.951Z,46363.49
2018-09-09T08:45:49.979Z,46365.43
2018-09-09T08:47:54.949Z,46341.23
2018-09-09T08:49:59.899Z,46363.49
2018-09-09T08:52:04.835Z,46353.82
2018-09-09T08:54:09.653Z,46349.94
2018-09-09T08:56:14.616Z,46366.39
2018-09-09T08:58:19.593Z,46369.30
2018-09-09T09:00:24.499Z,46361.56
2018-09-09T09:02:29.339Z,46392.53
2018-09-09T09:04:34.181Z,46368.33
2018-09-09T09:06:39.041Z,46364.46
2018-09-09T09:08:43.913Z,46378.01
2018-09-09T09:10:49.021Z,46371.23
2018-09-09T09:12:55.128Z,46377.04
2018-09-09T09:14:59.997Z,46374.14
2018-09-09T09:17:04.876Z,46370.27
2018-09-09T09:19:09.738Z,46361.56
2018-09-09T09:21:14.574Z,46370.27
2018-09-09T09:23:19.498Z,46350.91
2018-09-09T09:25:24.395Z,46359.62
2018-09-09T09:27:29.341Z,46377.04
2018-09-09T09:29:39.252Z,46378.98
2018-09-09T09:31:44.678Z,46363.49
2018-09-09T09:33:49.591Z,46359.62
2018-09-09T09:35:55.170Z,46368.33
2018-09-09T09:38:00.053Z,46381.88
2018-09-09T09:40:05.136Z,46365.43
2018-09-09T09:42:10.032Z,46387.69
2018-09-09T09:44:14.905Z,46384.79
2018-09-09T09:46:19.721Z,46388.66
2018-09-09T09:48:25.430Z,46373.17
2018-09-09T09:50:30.291Z,46368.33
2018-09-09T09:52:35.070Z,46368.33
2018-09-09T09:54:40.314Z,46378.01
2018-09-09T09:56:45.094Z,46376.07
2018-09-09T09:58:50.045Z,46382.85
2018-09-09T10:01:01.354Z,46378.98
2018-09-09T10:03:06.304Z,46385.75
2018-09-09T10:05:11.411Z,46371.23
2018-09-09T10:07:16.735Z,46368.33
2018-09-09T10:09:21.602Z,46362.52
2018-09-09T10:11:26.476Z,46378.01
2018-09-09T10:13:31.309Z,46390.59
2018-09-09T10:15:36.296Z,46396.40
2018-09-09T10:17:41.167Z,46391.56
2018-09-09T10:19:46.082Z,46388.66
2018-09-09T10:21:51.218Z,46398.33
2018-09-09T10:23:56.132Z,46392.53
2018-09-09T10:26:10.653Z,46390.59
2018-09-09T10:28:15.961Z,46404.14
2018-09-09T10:30:22.655Z,46395.43
2018-09-09T10:32:27.862Z,46389.62
2018-09-09T10:34:33.141Z,46401.24
2018-09-09T10:36:38.021Z,46415.75
2018-09-09T10:38:43.182Z,46405.11
2018-09-09T10:40:48.105Z,46381.88
2018-09-09T10:42:53.005Z,46400.27
2018-09-09T10:44:58.187Z,46403.17
2018-09-09T10:47:03.183Z,46404.14
2018-09-09T10:49:08.103Z,46403.17
2018-09-09T10:51:13.657Z,46414.79
2018-09-09T10:53:18.828Z,46400.27
2018-09-09T10:55:23.848Z,46386.72
2018-09-09T10:57:28.776Z,46404.14
2018-09-09T10:59:33.630Z,46386.72
2018-09-09T11:01:38.840Z,46394.46
2018-09-09T11:03:44.130Z,46401.24
2018-09-09T11:05:49.919Z,46411.88
2018-09-09T11:07:54.964Z,46405.11
2018-09-09T11:10:00.061Z,46391.56
2018-09-09T11:12:05.259Z,46415.75
2018-09-09T11:14:11.365Z,46416.72
2018-09-09T11:16:16.399Z,46418.66
2018-09-09T11:18:21.464Z,46415.75
2018-09-09T11:20:26.447Z,46415.75
2018-09-09T11:22:32.248Z,46425.43
2018-09-09T11:24:37.252Z,46414.79
2018-09-09T11:26:42.271Z,46419.62
2018-09-09T11:28:47.689Z,46405.11
2018-09-09T11:30:52.750Z,46412.85
2018-09-09T11:35:00.811Z,46425.43
2018-09-09T11:37:05.825Z,46409.95
2018-09-09T11:39:11.770Z,46413.82
2018-09-09T11:41:17.067Z,46432.21
2018-09-09T11:43:23.023Z,46427.37
2018-09-09T11:45:29.181Z,46429.30
2018-09-09T11:47:34.445Z,46406.07
2018-09-09T11:49:39.901Z,46418.66
2018-09-09T11:51:45.278Z,46445.75
2018-09-09T11:53:50.304Z,46432.21
2018-09-09T11:55:55.366Z,46430.27
2018-09-09T11:58:00.728Z,46436.08
2018-09-09T12:00:06.339Z,46445.75
2018-09-09T12:02:11.516Z,46434.14
2018-09-09T12:04:22.848Z,46435.11
2018-09-09T12:06:27.909Z,46440.92
2018-09-09T12:08:32.825Z,46435.11
2018-09-09T12:10:37.711Z,46447.69
2018-09-09T12:12:42.944Z,46441.88
2018-09-09T12:14:47.871Z,46452.53
2018-09-09T12:16:52.793Z,46427.37
2018-09-09T12:18:57.791Z,46436.08
2018-09-09T12:21:02.782Z,46438.01
2018-09-09T12:23:07.669Z,46445.75
2018-09-09T12:25:12.598Z,46453.50
2018-09-09T12:27:17.346Z,46430.27
2018-09-09T12:29:22.417Z,46438.98
2018-09-09T12:31:27.468Z,46437.05
2018-09-09T12:33:32.355Z,46422.53
2018-09-09T12:35:37.360Z,46446.72
2018-09-09T12:37:42.305Z,46439.95
2018-09-09T12:39:47.277Z,46434.14
2018-09-09T12:41:52.084Z,46437.05
2018-09-09T12:44:02.867Z,46445.75
2018-09-09T12:46:13.030Z,46448.66
2018-09-09T12:48:22.940Z,46435.11
2018-09-09T12:50:27.828Z,46433.18
2018-09-09T12:52:32.736Z,46439.95
2018-09-09T12:54:37.606Z,46430.27
2018-09-09T12:56:42.518Z,46438.01
2018-09-09T12:58:47.397Z,46454.46
2018-09-09T13:00:52.374Z,46438.98
2018-09-09T13:02:57.133Z,46443.82
2018-09-09T13:05:02.083Z,46445.75
2018-09-09T13:07:06.920Z,46451.56
2018-09-09T13:09:11.690Z,46437.05
2018-09-09T13:11:16.513Z,46441.88
2018-09-09T13:13:21.560Z,46446.72
2018-09-09T13:15:26.377Z,46445.75
2018-09-09T13:17:31.254Z,46450.59
2018-09-09T13:19:36.109Z,46440.92
2018-09-09T13:21:41.203Z,46423.50
2018-09-09T13:23:46.143Z,46449.62
2018-09-09T13:25:51.098Z,46444.79
2018-09-09T13:27:55.928Z,46447.69
2018-09-09T13:30:00.827Z,46459.30
2018-09-09T13:32:06.011Z,46441.88
2018-09-09T13:34:10.948Z,46423.50
2018-09-09T13:36:15.777Z,46436.08
2018-09-09T13:38:20.675Z,46447.69
2018-09-09T13:40:25.743Z,46445.75
2018-09-09T13:42:30.685Z,46423.50
2018-09-09T13:44:35.669Z,46440.92
2018-09-09T13:46:40.495Z,46440.92
2018-09-09T13:48:45.353Z,46455.43
2018-09-09T13:50:50.259Z,46437.05
2018-09-09T13:52:55.258Z,46442.85
2018-09-09T13:55:00.917Z,46460.27
2018-09-09T13:57:06.000Z,46449.62
2018-09-09T13:59:10.982Z,46446.72
2018-09-09T14:01:15.853Z,46453.50
2018-09-09T14:03:21.130Z,46446.72
2018-09-09T14:05:26.172Z,46444.79
2018-09-09T14:07:31.070Z,46454.46
2018-09-09T14:09:36.029Z,46459.30
2018-09-09T14:11:40.976Z,46441.88
2018-09-09T14:13:46.035Z,46438.01
2018-09-09T14:15:51.444Z,46446.72
2018-09-09T14:17:56.606Z,46451.56
2018-09-09T14:20:01.652Z,46449.62
2018-09-09T14:22:07.586Z,46438.01
2018-09-09T14:24:12.479Z,46434.14
2018-09-09T14:26:20.277Z,46443.82
2018-09-09T14:28:25.551Z,46450.59
2018-09-09T14:30:30.405Z,46443.82
2018-09-09T14:32:35.569Z,46439.95
2018-09-09T14:34:40.314Z,46435.11
2018-09-09T14:36:45.359Z,46447.69
2018-09-09T14:38:50.407Z,46448.66
2018-09-09T14:40:55.509Z,46450.59
2018-09-09T14:43:02.118Z,46438.98
2018-09-09T14:45:07.501Z,46445.75
2018-09-09T14:47:12.580Z,46449.62
2018-09-09T14:49:17.829Z,46440.92
2018-09-09T14:51:22.817Z,46447.69
2018-09-09T14:53:28.398Z,46447.69
2018-09-09T14:55:33.861Z,46440.92
2018-09-09T14:57:38.885Z,46424.46
2018-09-09T14:59:44.045Z,46466.08
2018-09-09T15:01:49.012Z,46430.27
2018-09-09T15:03:53.938Z,46444.79
2018-09-09T15:05:58.853Z,46453.50
2018-09-09T15:08:04.168Z,46453.50
2018-09-09T15:10:09.262Z,46451.56
2018-09-09T15:12:14.118Z,46455.43
2018-09-09T15:14:19.059Z,46443.82
2018-09-09T15:16:24.028Z,46461.24
2018-09-09T15:18:29.155Z,46444.79
2018-09-09T15:20:34.098Z,46453.50
2018-09-09T15:22:40.402Z,46455.43
2018-09-09T15:24:47.795Z,46458.34
2018-09-09T15:26:53.969Z,46451.56
2018-09-09T15:28:59.129Z,46457.37
2018-09-09T15:31:04.031Z,46449.62
2018-09-09T15:33:09.321Z,46460.27
2018-09-09T15:35:14.564Z,46478.66
2018-09-09T15:37:19.575Z,46462.21
2018-09-09T15:39:24.847Z,46471.89
2018-09-09T15:41:30.139Z,46472.86
2018-09-09T15:43:35.562Z,46474.79
2018-09-09T15:45:40.757Z,46479.63
2018-09-09T15:47:46.009Z,46469.95
2018-09-09T15:49:53.278Z,46469.95
2018-09-09T15:51:58.743Z,46456.40
2018-09-09T15:54:04.467Z,46450.59
2018-09-09T15:56:10.471Z,46467.05
2018-09-09T15:58:16.959Z,46455.43
2018-09-09T16:00:23.692Z,46470.92
2018-09-09T16:02:29.513Z,46480.60
2018-09-09T16:04:34.716Z,46467.05
2018-09-09T16:06:39.704Z,46457.37
2018-09-09T16:08:44.858Z,46472.86
2018-09-09T16:10:52.681Z,46474.79
2018-09-09T16:12:58.069Z,46481.56
2018-09-09T16:15:04.996Z,46482.53
2018-09-09T16:17:10.142Z,46490.27
2018-09-09T16:19:15.526Z,46482.53
2018-09-09T16:21:20.712Z,46500.92
2018-09-09T16:23:25.757Z,46487.37
2018-09-09T16:25:31.125Z,46501.89
2018-09-09T16:27:35.910Z,46496.08
2018-09-09T16:29:41.590Z,46500.92
2018-09-09T16:31:46.500Z,46504.79
2018-09-09T16:33:51.545Z,46503.82
2018-09-09T16:36:03.252Z,46504.79
2018-09-09T16:38:09.462Z,46505.76
2018-09-09T16:40:14.759Z,46487.37
2018-09-09T16:42:22.337Z,46488.34
2018-09-09T16:44:27.999Z,46496.08
2018-09-09T16:46:33.085Z,46491.24
2018-09-09T16:48:38.269Z,46480.60
2018-09-09T16:50:43.348Z,46484.47
2018-09-09T16:52:48.355Z,46460.27
2018-09-09T16:54:54.085Z,46466.08
2018-09-09T16:56:59.352Z,46461.24
2018-09-09T16:59:05.219Z,46461.24
2018-09-09T17:01:10.973Z,46451.56
2018-09-09T17:03:18.281Z,46468.98
2018-09-09T17:05:24.907Z,46461.24
2018-09-09T17:07:30.945Z,46445.75
2018-09-09T17:09:37.990Z,46426.40
2018-09-09T17:11:44.497Z,46446.72
2018-09-09T17:13:50.199Z,46429.30
2018-09-09T17:15:55.389Z,46441.88
2018-09-09T17:18:00.468Z,46446.72
2018-09-09T17:20:05.709Z,46447.69
2018-09-09T17:22:10.972Z,46429.30
2018-09-09T17:24:16.339Z,46423.50
2018-09-09T17:26:21.659Z,46430.27
2018-09-09T17:28:26.676Z,46421.56
2018-09-09T17:30:31.767Z,46426.40
2018-09-09T17:32:39.292Z,46420.59
2018-09-09T17:34:44.943Z,46423.50
2018-09-09T17:36:50.567Z,46412.85
2018-09-09T17:38:56.629Z,46431.24
2018-09-09T17:41:03.245Z,46422.53
2018-09-09T17:43:10.685Z,46416.72
2018-09-09T17:45:17.555Z,46406.07
2018-09-09T17:47:23.832Z,46415.75
2018-09-09T17:49:29.068Z,46423.50
2018-09-09T17:51:33.983Z,46411.88
2018-09-09T17:53:39.058Z,46404.14
2018-09-09T17:55:44.081Z,46407.04
2018-09-09T17:57:49.105Z,46408.01
2018-09-09T17:59:54.032Z,46408.98
2018-09-09T18:01:59.011Z,46405.11
2018-09-09T18:04:04.004Z,46404.14
2018-09-09T18:06:09.008Z,46405.11
2018-09-09T18:08:14.338Z,46397.36
2018-09-09T18:10:19.474Z,46375.11
2018-09-09T18:12:25.173Z,46398.33
2018-09-09T18:14:30.179Z,46385.75
2018-09-09T18:16:35.336Z,46382.85
2018-09-09T18:18:40.507Z,46401.24
2018-09-09T18:20:47.907Z,46394.46
2018-09-09T18:22:55.016Z,46374.14
2018-09-09T18:25:01.960Z,46375.11
2018-09-09T18:27:09.247Z,46397.36
2018-09-09T18:29:15.580Z,46372.20
2018-09-09T18:31:22.260Z,46381.88
2018-09-09T18:33:30.090Z,46379.95
2018-09-09T18:35:42.283Z,46375.11
2018-09-09T18:37:51.784Z,46374.14
2018-09-09T18:39:58.339Z,46380.91
2018-09-09T18:42:03.449Z,46377.04
2018-09-09T18:44:10.149Z,46362.52
2018-09-09T18:46:18.801Z,46371.23
2018-09-09T18:48:23.757Z,46361.56
2018-09-09T18:50:28.863Z,46365.43
2018-09-09T18:52:35.621Z,46363.49
2018-09-09T18:54:41.123Z,46363.49
2018-09-09T18:56:47.150Z,46348.01
2018-09-09T18:58:52.619Z,46366.39
2018-09-09T19:00:57.920Z,46366.39
2018-09-09T19:03:03.760Z,46361.56
2018-09-09T19:05:10.296Z,46384.79
2018-09-09T19:07:15.756Z,46361.56
2018-09-09T19:09:21.149Z,46350.91
2018-09-09T19:11:27.417Z,46386.72
2018-09-09T19:13:36.792Z,46351.88
2018-09-09T19:15:42.416Z,46353.82
2018-09-09T19:17:51.752Z,46348.01
2018-09-09T19:19:58.259Z,46352.85
2018-09-09T19:22:06.938Z,46354.79
2018-09-09T19:24:12.554Z,46347.04
2018-09-09T19:26:17.662Z,46346.07
2018-09-09T19:28:24.642Z,46336.39
2018-09-09T19:30:33.321Z,46342.20
2018-09-09T19:32:41.106Z,46330.59
2018-09-09T19:34:48.615Z,46336.39
2018-09-09T19:36:56.277Z,46335.43
2018-09-09T19:39:04.971Z,46344.14
2018-09-09T19:41:12.553Z,46342.20
2018-09-09T19:43:22.033Z,46335.43
2018-09-09T19:45:32.150Z,46335.43
2018-09-09T19:47:42.048Z,46348.01
2018-09-09T19:49:50.927Z,46348.01
2018-09-09T19:52:00.976Z,46329.62
2018-09-09T19:54:06.745Z,46326.72
2018-09-09T19:56:17.835Z,46332.52
2018-09-09T19:58:25.654Z,46335.43
2018-09-09T20:00:54.784Z,46318.01
2018-09-09T20:05:41.432Z,46326.72
2018-09-09T20:07:48.261Z,46325.75
2018-09-09T20:09:56.942Z,46331.55
2018-09-09T20:12:02.523Z,46324.78
2018-09-09T20:14:09.424Z,46327.68
2018-09-09T20:16:17.445Z,46324.78
2018-09-09T20:18:27.209Z,46315.11
2018-09-09T20:20:32.927Z,46319.94
2018-09-09T20:22:39.721Z,46310.27
2018-09-09T20:24:45.233Z,46311.23
2018-09-09T20:26:52.806Z,46299.62
2018-09-09T20:28:59.257Z,46306.39
2018-09-09T20:31:05.125Z,46319.94
2018-09-09T20:33:10.302Z,46328.65
2018-09-09T20:35:15.468Z,46322.85
2018-09-09T20:37:22.020Z,46307.36
2018-09-09T20:39:30.651Z,46323.81
2018-09-09T20:41:38.698Z,46311.23
2018-09-09T20:43:44.079Z,46318.97
2018-09-09T20:45:51.861Z,46316.07
2018-09-09T20:47:59.144Z,46310.27
2018-09-09T20:50:04.911Z,46288.01
2018-09-09T20:52:10.481Z,46313.17
2018-09-09T20:54:15.805Z,46298.65
2018-09-09T20:56:21.914Z,46316.07
2018-09-09T20:58:28.890Z,46317.04
2018-09-09T21:00:34.246Z,46318.01
2018-09-09T21:02:41.038Z,46294.78
2018-09-09T21:04:46.148Z,46311.23
2018-09-09T21:06:51.311Z,46314.14
2018-09-09T21:08:56.807Z,46304.46
2018-09-09T21:11:01.823Z,46284.14
2018-09-09T21:13:06.883Z,46315.11
2018-09-09T21:15:11.750Z,46306.39
2018-09-09T21:17:16.678Z,46292.84
2018-09-09T21:19:21.947Z,46306.39
2018-09-09T21:21:26.908Z,46284.14
2018-09-09T21:23:32.214Z,46313.17
2018-09-09T21:25:37.289Z,46298.65
2018-09-09T21:27:42.387Z,46290.91
2018-09-09T21:29:47.599Z,46303.49
2018-09-09T21:31:52.624Z,46305.43
2018-09-09T21:33:57.484Z,46301.55
2018-09-09T21:36:03.461Z,46288.97
2018-09-09T21:38:08.685Z,46300.59
2018-09-09T21:40:13.739Z,46296.72
2018-09-09T21:42:18.614Z,46296.72
2018-09-09T21:44:23.469Z,46319.94
2018-09-09T21:46:28.387Z,46289.94
2018-09-09T21:48:33.186Z,46278.33
2018-09-09T21:50:38.162Z,46288.01
2018-09-09T21:52:43.043Z,46271.55
2018-09-09T21:54:47.957Z,46308.33
2018-09-09T21:56:52.795Z,46300.59
2018-09-09T21:58:57.752Z,46296.72
2018-09-09T22:01:07.746Z,46301.55
2018-09-09T22:03:12.611Z,46284.14
2018-09-09T22:05:17.470Z,46288.01
2018-09-09T22:07:22.413Z,46302.52
2018-09-09T22:09:27.264Z,46286.07
2018-09-09T22:11:32.044Z,46310.27
2018-09-09T22:13:37.191Z,46287.04
2018-09-09T22:15:42.093Z,46290.91
2018-09-09T22:17:47.021Z,46295.75
2018-09-09T22:19:51.968Z,46291.88
2018-09-09T22:21:56.745Z,46272.52
2018-09-09T22:24:01.493Z,46289.94
2018-09-09T22:26:06.438Z,46286.07
2018-09-09T22:28:11.161Z,46298.65
2018-09-09T22:30:16.040Z,46287.04
2018-09-09T22:32:20.912Z,46294.78
2018-09-09T22:34:25.660Z,46285.10
2018-09-09T22:36:30.385Z,46300.59
2018-09-09T22:38:35.397Z,46280.27
2018-09-09T22:40:40.237Z,46283.17
2018-09-09T22:42:44.988Z,46288.01
2018-09-09T22:44:49.804Z,46276.39
2018-09-09T22:46:54.514Z,46269.62
2018-09-09T22:48:59.327Z,46281.23
2018-09-09T22:51:04.088Z,46288.97
2018-09-09T22:53:08.839Z,46276.39
2018-09-09T22:55:13.652Z,46285.10
2018-09-09T22:57:18.353Z,46291.88
2018-09-09T22:59:23.300Z,46293.81
2018-09-09T23:01:27.994Z,46285.10
2018-09-09T23:03:32.818Z,46299.62
2018-09-09T23:05:37.824Z,46277.36
2018-09-09T23:07:42.402Z,46287.04
2018-09-09T23:09:47.105Z,46308.33
2018-09-09T23:11:51.878Z,46285.10
2018-09-09T23:13:56.581Z,46274.46
2018-09-09T23:17:30.755Z,46294.78
2018-09-09T23:19:35.505Z,46284.14
2018-09-09T23:21:40.248Z,46278.33
2018-09-09T23:23:44.949Z,46277.36
2018-09-09T23:25:49.588Z,46273.49
2018-09-09T23:27:54.489Z,46282.20
2018-09-09T23:29:59.245Z,46277.36
2018-09-09T23:32:03.934Z,46285.10
2018-09-09T23:34:08.687Z,46280.27
2018-09-09T23:36:13.413Z,46299.62
2018-09-09T23:38:18.633Z,46289.94
2018-09-09T23:40:23.477Z,46287.04
2018-09-09T23:42:28.207Z,46295.75
2018-09-09T23:44:33.001Z,46291.88
2018-09-09T23:46:37.787Z,46284.14
2018-09-09T23:48:42.522Z,46283.17
2018-09-09T23:50:47.250Z,46299.62
2018-09-09T23:52:51.983Z,46269.62
2018-09-09T23:54:56.712Z,46288.97
2018-09-09T23:57:01.420Z,46283.17
2018-09-09T23:59:06.344Z,46289.94
